createdAt,value
2023-01-07T00:02:56.263Z,1.70
2023-01-07T00:06:05.698Z,1.70
2023-01-07T00:09:08.444Z,1.50
2023-01-07T00:12:09.969Z,1.85
2023-01-07T00:15:12.596Z,1.80
2023-01-07T00:18:14.114Z,1.80
2023-01-07T00:21:16.931Z,1.83
2023-01-07T00:24:18.804Z,2.10
2023-01-07T00:27:20.367Z,2.13
2023-01-07T00:30:21.896Z,1.80
2023-01-07T00:33:23.742Z,1.83
2023-01-07T00:36:27.324Z,1.98
2023-01-07T00:39:28.873Z,2.13
2023-01-07T00:42:48.982Z,1.90
2023-01-07T00:45:51.024Z,1.65
2023-01-07T00:48:52.550Z,1.80
2023-01-07T00:51:54.077Z,1.77
2023-01-07T00:54:55.593Z,1.80
2023-01-07T00:57:57.190Z,2.13
2023-01-07T01:01:00.368Z,2.40
2023-01-07T01:04:02.575Z,2.10
2023-01-07T01:07:04.081Z,1.90
2023-01-07T01:10:06.896Z,1.47
2023-01-07T01:13:10.567Z,1.80
2023-01-07T01:16:14.332Z,2.08
2023-01-07T01:19:15.913Z,1.75
2023-01-07T01:22:17.398Z,1.70
2023-01-07T01:25:19.039Z,1.80
2023-01-07T01:28:20.532Z,1.52
2023-01-07T01:31:22.115Z,1.80
2023-01-07T01:34:23.674Z,2.13
2023-01-07T01:37:25.177Z,2.27
2023-01-07T01:40:29.686Z,2.13
2023-01-07T01:43:40.134Z,2.20
2023-01-07T01:46:42.079Z,2.08
2023-01-07T01:50:08.035Z,2.00
2023-01-07T01:53:09.529Z,2.03
2023-01-07T01:56:12.556Z,2.37
2023-01-07T01:59:17.890Z,2.33
2023-01-07T02:02:31.728Z,1.85
2023-01-07T02:05:35.325Z,2.22
2023-01-07T02:08:36.845Z,1.73
2023-01-07T02:11:59.549Z,2.43
2023-01-07T02:18:05.063Z,2.10
2023-01-07T02:21:29.694Z,1.92
2023-01-07T02:24:49.441Z,1.77
2023-01-07T02:27:56.959Z,1.80
2023-01-07T02:31:25.665Z,1.60
2023-01-07T02:34:41.925Z,1.90
2023-01-07T02:37:51.813Z,1.77
2023-01-07T02:41:07.927Z,1.90
2023-01-07T02:44:14.988Z,2.00
2023-01-07T02:47:45.742Z,1.80
2023-01-07T02:50:47.279Z,2.17
2023-01-07T02:53:48.796Z,1.80
2023-01-07T02:57:10.492Z,1.80
2023-01-07T03:00:39.563Z,1.75
2023-01-07T03:03:46.873Z,1.60
2023-01-07T03:07:15.499Z,1.90
2023-01-07T03:10:22.535Z,2.53
2023-01-07T03:13:25.770Z,1.60
2023-01-07T03:16:32.148Z,1.80
2023-01-07T03:19:35.707Z,1.45
2023-01-07T03:22:37.211Z,1.80
2023-01-07T03:25:45.574Z,1.97
2023-01-07T03:28:47.099Z,1.80
2023-01-07T03:32:02.962Z,1.60
2023-01-07T03:35:05.632Z,1.95
2023-01-07T03:38:07.159Z,2.00
2023-01-07T03:41:08.724Z,1.83
2023-01-07T03:44:10.227Z,2.13
2023-01-07T03:47:11.845Z,1.90
2023-01-07T03:50:13.421Z,1.83
2023-01-07T03:53:14.964Z,1.83
2023-01-07T03:56:16.480Z,1.40
2023-01-07T03:59:18.046Z,1.73
2023-01-07T04:02:19.560Z,1.80
2023-01-07T04:05:21.081Z,1.50
2023-01-07T04:08:22.574Z,1.70
2023-01-07T04:11:24.209Z,1.70
2023-01-07T04:14:25.815Z,1.70
2023-01-07T04:17:27.377Z,1.60
2023-01-07T04:20:28.899Z,1.63
2023-01-07T04:23:30.419Z,2.03
2023-01-07T04:26:33.799Z,1.77
2023-01-07T04:29:35.347Z,1.73
2023-01-07T04:32:36.878Z,1.50
2023-01-07T04:35:39.293Z,1.67
2023-01-07T04:41:42.233Z,1.55
2023-01-07T04:44:43.774Z,1.53
2023-01-07T04:47:45.328Z,2.13
2023-01-07T04:50:47.590Z,2.03
2023-01-07T04:53:49.131Z,2.05
2023-01-07T04:56:50.810Z,1.90
2023-01-07T04:59:52.347Z,1.55
2023-01-07T05:02:53.872Z,1.70
2023-01-07T05:05:55.390Z,1.70
2023-01-07T05:08:57.025Z,1.60
2023-01-07T05:11:58.545Z,1.60
2023-01-07T05:15:00.053Z,1.60
2023-01-07T05:18:01.612Z,2.00
2023-01-07T05:21:03.511Z,1.90
2023-01-07T05:24:05.129Z,1.48
2023-01-07T05:27:06.685Z,1.70
2023-01-07T05:30:08.589Z,1.40
2023-01-07T05:33:10.128Z,1.50
2023-01-07T05:36:11.976Z,1.40
2023-01-07T05:39:13.534Z,1.70
2023-01-07T05:42:15.043Z,1.77
2023-01-07T05:45:16.615Z,1.50
2023-01-07T05:48:18.094Z,1.47
2023-01-07T05:51:19.766Z,3.47
2023-01-07T05:54:21.281Z,6.40
2023-01-07T05:57:22.773Z,5.23
2023-01-07T06:00:24.302Z,5.40
2023-01-07T06:03:25.868Z,3.63
2023-01-07T06:06:27.433Z,3.20
2023-01-07T06:09:29.997Z,2.93
2023-01-07T06:12:31.567Z,2.65
2023-01-07T06:15:33.150Z,2.90
2023-01-07T06:18:35.290Z,2.07
2023-01-07T06:21:36.969Z,1.60
2023-01-07T06:24:38.751Z,1.60
2023-01-07T06:27:43.214Z,1.80
2023-01-07T06:30:47.701Z,1.50
2023-01-07T06:33:49.301Z,2.10
2023-01-07T06:36:51.555Z,2.08
2023-01-07T06:39:53.134Z,1.50
2023-01-07T06:42:54.633Z,1.50
2023-01-07T06:45:56.353Z,1.30
2023-01-07T06:48:58.119Z,1.33
2023-01-07T06:51:59.656Z,1.42
2023-01-07T06:55:01.419Z,1.33
2023-01-07T06:58:02.919Z,1.23
2023-01-07T07:01:07.911Z,1.77
2023-01-07T07:04:09.549Z,3.13
2023-01-07T07:07:11.079Z,4.27
2023-01-07T07:10:12.775Z,3.17
2023-01-07T07:13:14.278Z,2.80
2023-01-07T07:16:15.864Z,3.83
2023-01-07T07:19:17.521Z,3.60
2023-01-07T07:22:19.189Z,2.87
2023-01-07T07:25:20.801Z,2.28
2023-01-07T07:28:22.401Z,2.10
2023-01-07T07:31:24.156Z,2.63
2023-01-07T07:34:25.853Z,3.88
2023-01-07T07:37:27.528Z,2.42
2023-01-07T07:40:29.373Z,3.50
2023-01-07T07:43:30.976Z,3.03
2023-01-07T07:46:32.634Z,4.30
2023-01-07T07:49:34.291Z,4.25
2023-01-07T07:52:35.891Z,3.33
2023-01-07T07:55:41.104Z,3.43
2023-01-07T07:58:43.283Z,3.50
2023-01-07T08:01:44.961Z,3.17
2023-01-07T08:04:46.927Z,3.20
2023-01-07T08:07:48.536Z,2.47
2023-01-07T08:10:50.191Z,3.03
2023-01-07T08:13:51.858Z,2.63
2023-01-07T08:16:53.765Z,4.15
2023-01-07T08:19:55.379Z,3.88
2023-01-07T08:23:00.820Z,2.77
2023-01-07T08:26:03.072Z,3.05
2023-01-07T08:32:06.182Z,3.10
2023-01-07T08:35:08.117Z,3.17
2023-01-07T08:38:09.743Z,2.60
2023-01-07T08:41:11.278Z,2.67
2023-01-07T08:44:12.811Z,1.90
2023-01-07T08:47:14.561Z,3.23
2023-01-07T08:50:16.199Z,2.50
2023-01-07T08:53:20.956Z,2.70
2023-01-07T08:56:22.925Z,2.90
2023-01-07T08:59:24.555Z,3.40
2023-01-07T09:02:26.238Z,3.22
2023-01-07T09:05:27.793Z,2.88
2023-01-07T09:08:29.330Z,3.00
2023-01-07T09:11:30.861Z,3.07
2023-01-07T09:14:32.405Z,3.00
2023-01-07T09:17:33.910Z,4.90
2023-01-07T09:20:35.589Z,3.17
2023-01-07T09:23:37.205Z,2.95
2023-01-07T09:26:38.710Z,3.55
2023-01-07T09:29:40.895Z,4.00
2023-01-07T09:32:43.213Z,3.00
2023-01-07T09:38:46.137Z,3.47
2023-01-07T09:41:53.567Z,3.23
2023-01-07T09:45:34.835Z,3.17
2023-01-07T09:48:44.151Z,2.90
2023-01-07T09:51:48.531Z,2.72
2023-01-07T09:54:53.489Z,2.83
2023-01-07T09:57:55.035Z,2.47
2023-01-07T10:01:24.786Z,2.75
2023-01-07T10:04:50.398Z,3.42
2023-01-07T10:08:30.714Z,3.10
2023-01-07T10:12:00.509Z,3.03
2023-01-07T10:15:29.864Z,2.92
2023-01-07T10:18:41.578Z,2.50
2023-01-07T10:21:52.195Z,1.90
2023-01-07T10:24:57.435Z,2.10
2023-01-07T10:28:00.442Z,2.42
2023-01-07T10:31:01.982Z,2.20
2023-01-07T10:34:06.010Z,2.22
2023-01-07T10:37:11.763Z,2.15
2023-01-07T10:40:32.148Z,2.55
2023-01-07T10:43:37.745Z,2.45
2023-01-07T10:46:57.471Z,2.50
2023-01-07T10:50:21.225Z,2.45
2023-01-07T10:53:49.439Z,2.78
2023-01-07T10:56:53.187Z,2.90
2023-01-07T10:59:56.431Z,2.90
2023-01-07T11:02:58.907Z,3.00
2023-01-07T11:06:04.570Z,3.13
2023-01-07T11:09:09.047Z,2.90
2023-01-07T11:12:25.808Z,3.78
2023-01-07T11:15:44.208Z,3.20
2023-01-07T11:18:55.074Z,2.80
2023-01-07T11:21:56.601Z,3.07
2023-01-07T11:28:01.945Z,2.78
2023-01-07T11:31:03.490Z,2.78
2023-01-07T11:34:05.261Z,2.53
2023-01-07T11:37:06.831Z,2.55
2023-01-07T11:40:14.772Z,2.67
2023-01-07T11:43:16.204Z,2.40
2023-01-07T11:46:19.955Z,2.00
2023-01-07T11:49:28.127Z,3.10
2023-01-07T11:52:29.623Z,2.20
2023-01-07T11:55:31.250Z,2.67
2023-01-07T11:58:46.884Z,2.47
2023-01-07T12:01:50.123Z,2.30
2023-01-07T12:04:51.665Z,1.90
2023-01-07T12:07:53.260Z,2.25
2023-01-07T12:10:56.028Z,2.20
2023-01-07T12:13:57.751Z,2.60
2023-01-07T12:17:16.076Z,2.22
2023-01-07T12:20:36.033Z,2.30
2023-01-07T12:23:44.545Z,2.05
2023-01-07T12:27:11.277Z,2.13
2023-01-07T12:30:31.352Z,4.35
2023-01-07T12:33:48.148Z,2.47
2023-01-07T12:36:54.608Z,2.13
2023-01-07T12:40:10.894Z,2.13
2023-01-07T12:43:23.582Z,2.65
2023-01-07T12:46:25.191Z,2.40
2023-01-07T12:49:29.862Z,2.50
2023-01-07T12:52:41.619Z,2.22
2023-01-07T12:55:46.110Z,2.22
2023-01-07T12:59:07.115Z,3.03
2023-01-07T13:02:48.638Z,2.15
2023-01-07T13:05:56.338Z,1.98
2023-01-07T13:08:58.867Z,2.30
2023-01-07T13:12:43.042Z,2.10
2023-01-07T13:15:45.062Z,2.13
2023-01-07T13:18:46.651Z,2.00
2023-01-07T13:21:48.238Z,2.30
2023-01-07T13:25:14.813Z,2.10
2023-01-07T13:28:48.984Z,2.42
2023-01-07T13:32:15.490Z,2.42
2023-01-07T13:35:38.971Z,2.17
2023-01-07T13:39:11.997Z,2.20
2023-01-07T13:42:39.037Z,2.55
2023-01-07T13:45:40.751Z,2.33
2023-01-07T13:48:50.255Z,2.47
2023-01-07T13:51:51.882Z,2.40
2023-01-07T13:54:58.228Z,2.40
2023-01-07T13:57:59.889Z,2.10
2023-01-07T14:01:17.859Z,2.40
2023-01-07T14:04:48.085Z,3.40
2023-01-07T14:08:00.453Z,2.50
2023-01-07T19:41:57.713Z,8.55
2023-01-07T19:44:59.259Z,6.05
2023-01-07T19:48:00.885Z,5.43
2023-01-07T19:51:03.705Z,4.70
2023-01-07T19:54:05.379Z,4.43
2023-01-07T19:57:06.905Z,5.32
2023-01-07T20:00:09.262Z,9.77
2023-01-07T20:03:11.175Z,7.03
2023-01-07T20:06:14.381Z,6.22
2023-01-07T20:09:15.922Z,5.07
2023-01-07T20:12:17.427Z,5.13
2023-01-07T20:15:19.328Z,6.20
2023-01-07T20:18:21.241Z,5.40
2023-01-07T20:21:25.418Z,4.43
2023-01-07T20:24:27.052Z,4.82
2023-01-07T20:27:28.621Z,3.63
2023-01-07T20:30:30.200Z,5.18
2023-01-07T20:33:31.739Z,7.97
2023-01-07T20:36:33.264Z,6.28
2023-01-07T20:39:37.634Z,5.22
2023-01-07T20:42:39.138Z,5.97
2023-01-07T20:45:40.764Z,6.07
2023-01-07T20:48:42.309Z,6.32
2023-01-07T20:51:43.862Z,6.15
2023-01-07T20:54:47.261Z,6.53
2023-01-07T20:57:48.968Z,6.53
2023-01-07T21:00:50.651Z,6.53
2023-01-07T21:03:54.262Z,6.70
2023-01-07T21:06:58.594Z,5.53
2023-01-07T21:10:00.135Z,5.40
2023-01-07T21:13:01.653Z,4.80
2023-01-07T21:16:04.058Z,6.15
2023-01-07T21:19:05.681Z,5.85
2023-01-07T21:22:07.198Z,6.45
2023-01-07T21:25:11.170Z,5.13
2023-01-07T21:28:13.016Z,5.80
2023-01-07T21:31:15.432Z,6.37
2023-01-07T21:34:17.375Z,7.78
2023-01-07T21:37:18.889Z,7.23
2023-01-07T21:40:20.872Z,5.72
2023-01-07T21:43:22.390Z,5.72
2023-01-07T21:46:23.964Z,5.55
2023-01-07T21:49:25.564Z,5.43
2023-01-07T21:52:27.076Z,5.20
2023-01-07T21:55:30.956Z,5.28
2023-01-07T21:58:32.566Z,5.28
2023-01-07T22:01:34.872Z,5.60
2023-01-07T22:04:40.657Z,5.57
2023-01-07T22:07:42.196Z,5.18
2023-01-07T22:10:48.221Z,4.70
2023-01-07T22:13:57.095Z,4.80
2023-01-07T22:16:58.637Z,5.18
2023-01-07T22:20:00.282Z,7.30
2023-01-07T22:23:01.832Z,5.47
2023-01-07T22:26:04.768Z,5.38
2023-01-07T22:29:06.946Z,4.95
2023-01-07T22:32:12.916Z,5.63
2023-01-07T22:35:14.804Z,5.40
2023-01-07T22:38:16.319Z,4.97
2023-01-07T22:41:17.970Z,8.30
2023-01-07T22:44:22.335Z,5.60
2023-01-07T22:47:26.711Z,6.53
2023-01-07T22:50:28.293Z,5.43
2023-01-07T22:53:30.008Z,6.00
2023-01-07T22:56:32.494Z,5.50
2023-01-07T22:59:35.653Z,5.95
2023-01-07T23:02:37.204Z,5.22
2023-01-07T23:05:39.807Z,4.57
2023-01-07T23:11:48.837Z,4.65
2023-01-07T23:14:50.367Z,4.78
2023-01-07T23:17:51.929Z,4.93
2023-01-07T23:20:53.484Z,4.88
2023-01-07T23:23:55.005Z,4.50
2023-01-07T23:26:57.324Z,5.75
2023-01-07T23:29:58.932Z,3.63
2023-01-07T23:33:00.479Z,4.68
2023-01-07T23:36:06.291Z,4.00
2023-01-07T23:39:07.832Z,3.78
2023-01-07T23:42:09.351Z,5.03
2023-01-07T23:45:11.244Z,4.80
2023-01-07T23:48:12.729Z,4.53
2023-01-07T23:51:15.911Z,3.50
2023-01-07T23:54:17.460Z,2.78
2023-01-07T23:57:18.988Z,2.83
